Rex, GA

9:26 AM EST on February 10, 2016 (GMT -0500)
Orchard Place | | Change Station
CLOSE
Current Station
Personal Weather Station
Location: Lake City, GA
Elevation: 958 ft
Nearby Weather Stations

Elev 958 ft 33.61 °N, 84.35 °W | Updated 10 minutes ago

Partly Cloudy
Partly Cloudy
25.5 °F
Feels Like 18 °F
N
6.3
Wind Variable Wind from NE

Today
High -- | Low -- °F
--% Chance of Precip.
Yesterday
High -- | Low -- °F
Precip. -- in
Pressure 30.17 in
Visibility 10.0 miles
Clouds Few 3500 ft
Windchill 18 °F
Dew Point 14 °F
Humidity 61%
Rainfall 0.00 in
Snow Depth Not available.
7:26 AM 6:16 PM
Waxing Crescent, 5% visible
METAR KATL 101352Z 30015G18KT 10SM FEW035 M04/M12 A3013 RMK AO2 SLP216 T10441117
Pressure 30.17 in
Visibility 10.0 miles
Clouds Few 3500 ft
Windchill 18 °F
Dew Point 14 °F
Humidity 61%
Rainfall 0.00 in
Snow Depth Not available.
7:26 AM 6:16 PM
Waxing Crescent, 5% visible
METAR KATL 101352Z 30015G18KT 10SM FEW035 M04/M12 A3013 RMK AO2 SLP216 T10441117

10-Day Weather Forecast

Almanac

Astronomy

Feb. 10, 2016 Rise Set
Actual Time
Civil Twilight
Nautical Twilight
Astronomical Twilight
Moon
Length of Visible Light
Length of Day
Tomorrow will be .
, % of the Moon is Illuminated

Today's Extremes

State Highs State Lows

Community

WunderPhotos

Upload Photos

1,891,850 photos uploaded!

WunderBlog® & News

Nearby

Air Quality

  Air Quality AQ Index Pollutant
Not available.

Snow Depth

Station Depth Elevation

Earthquake Activity

City Distance Mag. Time & Date
Minimum magnitude displayed is 2.5.

Coastal Water Temperatures

Place Temperature

Stations

Nearby Weather Stations

Station Location Temp. Windchill Dew Point Humidity Wind Precip. Elev Updated Type
                   

Watches & Warnings

There are currently no watches in effect.